Time;durP1;ratioP1;P1;durP2;ratioP2;P2;SDS_P1;SDS_P2;PMS_P1;PMS_P2;Temp;Humidity;BMP_temperature;BMP_pressure;BME280_temperature;BME280_humidity;BME280_pressure;Samples;Min_cycle;Max_cycle;Signal;HPM_P1;HPM_P2
2023/05/24 00:02:13;;;;;;;19.73;3.70;;;8.50;99.90;;;;;;5074026;28;20072;-85
2023/05/24 00:04:41;;;;;;;16.63;4.35;;;8.50;99.90;;;;;;5073134;28;20435;-85
2023/05/24 00:07:08;;;;;;;19.42;3.67;;;8.50;99.90;;;;;;5072972;28;20040;-85
2023/05/24 00:09:34;;;;;;;14.38;3.75;;;8.50;99.90;;;;;;5073547;28;20047;-87
2023/05/24 00:12:01;;;;;;;15.95;3.97;;;8.50;99.90;;;;;;5070144;28;20044;-86
2023/05/24 00:14:28;;;;;;;26.55;4.82;;;8.50;99.90;;;;;;5070053;28;20504;-87
2023/05/24 00:16:54;;;;;;;23.63;3.63;;;8.50;99.90;;;;;;5038041;28;20381;-86
2023/05/24 00:19:21;;;;;;;12.93;3.17;;;8.50;99.90;;;;;;5086419;28;20067;-84
2023/05/24 00:21:48;;;;;;;21.35;5.10;;;8.50;99.90;;;;;;5055642;28;20033;-84
2023/05/24 00:24:16;;;;;;;15.80;3.90;;;8.50;99.90;;;;;;5092566;28;20047;-84
2023/05/24 00:26:43;;;;;;;19.10;4.30;;;8.50;99.90;;;;;;5077802;28;20419;-84
2023/05/24 00:29:10;;;;;;;24.35;5.03;;;8.50;99.90;;;;;;5077768;28;20044;-84
2023/05/24 00:31:37;;;;;;;22.27;3.83;;;8.50;99.90;;;;;;5077168;28;20106;-84
2023/05/24 00:34:04;;;;;;;20.63;3.50;;;8.50;99.90;;;;;;5093905;28;20045;-84
2023/05/24 00:36:31;;;;;;;26.42;4.03;;;8.50;99.90;;;;;;5076993;28;20047;-84
2023/05/24 00:38:58;;;;;;;15.93;3.65;;;8.50;99.90;;;;;;5085133;28;20461;-84
2023/05/24 00:41:25;;;;;;;18.38;3.55;;;8.40;99.90;;;;;;5040400;28;20068;-84
2023/05/24 00:43:52;;;;;;;14.95;3.80;;;8.40;99.90;;;;;;5073249;28;20080;-84
2023/05/24 00:46:37;;;;;;;15.45;4.15;;;8.40;99.90;;;;;;5071352;28;20075;-84
2023/05/24 00:49:05;;;;;;;21.15;4.05;;;8.40;99.90;;;;;;5061437;28;20044;-83
2023/05/24 00:51:32;;;;;;;18.75;4.13;;;8.40;99.90;;;;;;5093601;28;20059;-84
2023/05/24 00:54:00;;;;;;;21.70;4.38;;;8.40;99.90;;;;;;5076871;28;20079;-84
2023/05/24 00:56:27;;;;;;;16.00;3.80;;;8.40;99.90;;;;;;5076895;28;20028;-83
2023/05/24 00:58:55;;;;;;;14.60;3.70;;;8.40;99.90;;;;;;5077089;28;20047;-84
2023/05/24 01:01:24;;;;;;;16.55;3.95;;;8.40;99.90;;;;;;5093121;28;20044;-84
2023/05/24 01:03:52;;;;;;;17.98;3.58;;;8.40;99.90;;;;;;5109565;28;20083;-84
2023/05/24 01:06:19;;;;;;;25.50;4.38;;;8.40;99.90;;;;;;5076516;28;20048;-84
2023/05/24 01:09:16;;;;;;;20.00;3.75;;;8.40;99.90;;;;;;5087954;28;20806;-84
2023/05/24 01:11:58;;;;;;;25.48;4.22;;;8.40;99.90;;;;;;5073013;28;20501;-84
2023/05/24 01:14:35;;;;;;;17.58;3.83;;;8.50;99.90;;;;;;5073036;28;20071;-85
2023/05/24 01:17:25;;;;;;;17.33;4.10;;;8.60;99.90;;;;;;5077400;28;20028;-84
2023/05/24 01:20:05;;;;;;;20.92;4.43;;;8.60;99.90;;;;;;5093637;28;20043;-84
2023/05/24 01:23:00;;;;;;;21.73;4.40;;;8.70;99.90;;;;;;5093358;28;20036;-84
2023/05/24 01:25:54;;;;;;;17.83;4.07;;;8.70;99.90;;;;;;5093201;28;20059;-84
2023/05/24 01:28:22;;;;;;;22.52;4.13;;;8.70;99.90;;;;;;5091906;28;20094;-84
2023/05/24 01:30:50;;;;;;;19.58;4.43;;;8.80;99.90;;;;;;5092766;28;20040;-85
2023/05/24 01:33:16;;;;;;;16.48;3.67;;;8.80;99.90;;;;;;5059006;28;20041;-86
2023/05/24 01:35:43;;;;;;;17.58;3.83;;;8.80;99.90;;;;;;5076701;28;20039;-86
2023/05/24 01:38:10;;;;;;;19.40;4.13;;;8.80;99.90;;;;;;5052865;28;20053;-86
2023/05/24 01:40:39;;;;;;;21.63;4.43;;;8.90;99.90;;;;;;5040315;28;20485;-86
2023/05/24 01:43:23;;;;;;;20.92;4.68;;;8.90;99.90;;;;;;5056297;28;20375;-86
2023/05/24 01:46:18;;;;;;;20.70;4.38;;;9.00;99.90;;;;;;5073051;28;20037;-86
2023/05/24 01:49:24;;;;;;;18.15;3.63;;;9.00;99.90;;;;;;5089667;28;20040;-86
2023/05/24 01:52:10;;;;;;;20.05;4.22;;;9.00;99.90;;;;;;5109429;28;20111;-86
2023/05/24 01:54:42;;;;;;;19.88;3.70;;;9.00;99.90;;;;;;5092724;28;20045;-86
2023/05/24 01:57:10;;;;;;;15.52;4.30;;;9.00;99.90;;;;;;5109171;28;20813;-86
2023/05/24 01:59:42;;;;;;;16.33;3.63;;;9.00;99.90;;;;;;5056042;28;20040;-86
2023/05/24 02:02:10;;;;;;;20.08;4.00;;;9.00;99.90;;;;;;5076211;28;20048;-86
2023/05/24 02:04:37;;;;;;;18.08;4.13;;;9.00;99.90;;;;;;5075298;28;20120;-86
2023/05/24 02:07:03;;;;;;;18.63;3.72;;;9.00;99.90;;;;;;5059130;28;20083;-85
2023/05/24 02:09:30;;;;;;;13.80;3.40;;;9.00;99.90;;;;;;5092184;28;20040;-86
2023/05/24 02:11:57;;;;;;;16.50;3.63;;;8.90;99.90;;;;;;5092522;28;20474;-86
2023/05/24 02:14:25;;;;;;;12.40;3.20;;;8.90;99.90;;;;;;5075812;28;20041;-86
2023/05/24 02:16:52;;;;;;;22.38;4.72;;;8.90;99.90;;;;;;5075632;28;20048;-86
2023/05/24 02:19:18;;;;;;;14.68;3.30;;;8.90;99.90;;;;;;5090364;28;20036;-85
2023/05/24 02:21:45;;;;;;;20.13;4.45;;;8.90;99.90;;;;;;5038398;28;20557;-86
2023/05/24 02:24:12;;;;;;;17.05;3.97;;;8.80;99.90;;;;;;5039044;28;20435;-86
2023/05/24 02:26:38;;;;;;;14.00;3.65;;;8.80;99.90;;;;;;5055130;28;20053;-86
2023/05/24 02:29:05;;;;;;;16.85;3.30;;;8.90;99.90;;;;;;5066154;28;20507;-86
2023/05/24 02:31:32;;;;;;;14.23;4.32;;;8.90;99.90;;;;;;5059970;28;20044;-86
2023/05/24 02:33:59;;;;;;;24.17;3.53;;;9.00;99.90;;;;;;5058306;28;20041;-86
2023/05/24 02:36:26;;;;;;;15.80;3.72;;;9.00;99.90;;;;;;5074738;28;20120;-86
2023/05/24 02:38:53;;;;;;;13.68;3.00;;;9.00;99.90;;;;;;5075027;28;20503;-86
2023/05/24 02:41:20;;;;;;;13.73;2.97;;;9.10;99.90;;;;;;5074818;28;20044;-85
2023/05/24 02:43:50;;;;;;;11.95;2.85;;;9.10;99.90;;;;;;5061622;28;20592;-85
2023/05/24 02:46:16;;;;;;;13.95;3.05;;;9.10;99.90;;;;;;5071281;28;20505;-85
2023/05/24 02:48:43;;;;;;;24.08;4.10;;;9.10;99.90;;;;;;5091348;28;20072;-86
2023/05/24 02:51:10;;;;;;;13.38;3.58;;;9.10;99.90;;;;;;5058731;28;20049;-86
2023/05/24 02:53:36;;;;;;;15.02;3.05;;;9.20;99.90;;;;;;5073866;28;20041;-86
2023/05/24 02:56:03;;;;;;;20.08;3.55;;;9.20;99.90;;;;;;5058706;28;20485;-86
2023/05/24 02:58:30;;;;;;;13.43;3.05;;;9.20;99.90;;;;;;5073991;28;20033;-86
2023/05/24 03:00:56;;;;;;;17.63;3.42;;;9.20;99.90;;;;;;5085790;28;20633;-86
2023/05/24 03:03:23;;;;;;;18.33;3.58;;;9.20;99.90;;;;;;5056821;28;20056;-85
2023/05/24 03:05:50;;;;;;;20.95;4.25;;;9.10;99.90;;;;;;5074669;28;20045;-86
2023/05/24 03:08:16;;;;;;;19.73;3.53;;;9.20;99.90;;;;;;5074678;28;20033;-86
2023/05/24 03:10:43;;;;;;;24.55;3.70;;;9.20;99.90;;;;;;5058618;28;20041;-86
2023/05/24 03:13:10;;;;;;;21.05;3.47;;;9.20;99.90;;;;;;5071114;28;20041;-86
2023/05/24 03:15:36;;;;;;;17.00;4.13;;;9.20;99.90;;;;;;5070278;28;20044;-86
2023/05/24 03:18:03;;;;;;;19.48;3.22;;;9.30;99.90;;;;;;5070691;28;20051;-85
2023/05/24 03:20:30;;;;;;;15.82;3.70;;;9.20;99.90;;;;;;5085504;28;20037;-86
2023/05/24 03:22:57;;;;;;;19.63;3.58;;;9.20;99.90;;;;;;5072773;28;20078;-86
2023/05/24 03:25:26;;;;;;;18.08;3.35;;;9.20;99.90;;;;;;5054550;28;20149;-84
2023/05/24 03:27:52;;;;;;;15.93;3.40;;;9.10;99.90;;;;;;5054765;28;20037;-84
2023/05/24 03:30:19;;;;;;;13.77;3.38;;;9.20;99.90;;;;;;5054315;28;20045;-85
2023/05/24 03:32:46;;;;;;;16.38;3.33;;;9.20;99.90;;;;;;5037805;28;20044;-86
2023/05/24 03:35:13;;;;;;;17.42;3.75;;;9.10;99.90;;;;;;5066449;28;20496;-86
2023/05/24 03:37:40;;;;;;;16.02;3.20;;;9.10;99.90;;;;;;5057982;28;20040;-86
2023/05/24 03:40:07;;;;;;;13.85;3.90;;;9.10;99.90;;;;;;5074098;28;20540;-86
2023/05/24 03:42:34;;;;;;;12.68;3.30;;;9.00;99.90;;;;;;5052414;28;20029;-86
2023/05/24 03:45:01;;;;;;;13.95;3.05;;;9.00;99.90;;;;;;5037580;28;20044;-86
2023/05/24 03:47:27;;;;;;;19.55;4.32;;;9.00;99.90;;;;;;5054335;28;20041;-85
2023/05/24 03:49:54;;;;;;;14.73;3.78;;;9.00;99.90;;;;;;5054116;28;20131;-86
2023/05/24 03:52:21;;;;;;;14.95;3.15;;;9.10;99.90;;;;;;5053992;28;20044;-86
2023/05/24 03:54:48;;;;;;;15.15;3.60;;;9.10;99.90;;;;;;5053779;28;20073;-86
2023/05/24 03:57:14;;;;;;;13.48;3.05;;;9.10;99.90;;;;;;5040324;28;20037;-86
2023/05/24 03:59:41;;;;;;;13.02;3.50;;;9.20;99.90;;;;;;5041592;28;20099;-86
2023/05/24 04:02:08;;;;;;;16.40;3.33;;;9.10;99.90;;;;;;5041952;28;20037;-86
2023/05/24 04:04:36;;;;;;;16.27;3.40;;;8.90;99.90;;;;;;5057718;28;20056;-85
2023/05/24 04:07:03;;;;;;;15.50;3.33;;;9.10;99.90;;;;;;5074393;28;20113;-86
2023/05/24 04:09:29;;;;;;;15.90;3.45;;;9.10;99.90;;;;;;5077897;28;20052;-86
2023/05/24 04:11:56;;;;;;;19.10;3.47;;;9.20;99.90;;;;;;5061399;28;20037;-85
2023/05/24 04:14:23;;;;;;;15.32;3.10;;;9.20;99.90;;;;;;5049251;28;20052;-86
2023/05/24 04:16:50;;;;;;;16.00;2.95;;;9.30;99.90;;;;;;5056702;28;20048;-86
2023/05/24 04:19:17;;;;;;;21.45;3.30;;;9.30;99.90;;;;;;5061395;28;20040;-86
2023/05/24 04:21:44;;;;;;;15.45;3.53;;;9.40;99.90;;;;;;5077567;28;20051;-85
2023/05/24 04:24:11;;;;;;;20.30;3.47;;;9.40;99.90;;;;;;5057068;28;20049;-86
2023/05/24 04:26:38;;;;;;;20.13;3.55;;;9.40;99.90;;;;;;5040829;28;20498;-86
2023/05/24 04:29:06;;;;;;;19.23;3.55;;;9.40;99.90;;;;;;5041729;28;20041;-86
2023/05/24 04:31:33;;;;;;;13.88;2.78;;;9.40;99.90;;;;;;5074399;28;20055;-84
2023/05/24 04:34:00;;;;;;;17.25;3.63;;;9.40;99.90;;;;;;5057864;28;20413;-86
2023/05/24 04:36:27;;;;;;;17.15;3.38;;;9.50;99.90;;;;;;5041083;28;20033;-85
2023/05/24 04:39:01;;;;;;;15.30;4.65;;;9.50;99.90;;;;;;5040861;28;20044;-86
2023/05/24 04:41:30;;;;;;;16.98;3.47;;;9.50;99.90;;;;;;5043105;28;20386;-86
2023/05/24 04:44:00;;;;;;;19.50;3.50;;;9.50;99.90;;;;;;5041709;28;20074;-86
2023/05/24 04:46:27;;;;;;;16.02;3.13;;;9.50;99.90;;;;;;5087980;28;20043;-86
2023/05/24 04:48:54;;;;;;;13.05;3.13;;;9.50;99.90;;;;;;5056868;28;20127;-86
2023/05/24 04:51:21;;;;;;;18.75;3.35;;;9.60;99.90;;;;;;5073605;28;20079;-86
2023/05/24 04:53:48;;;;;;;18.17;5.38;;;9.60;99.90;;;;;;5073304;28;20133;-86
2023/05/24 04:56:15;;;;;;;18.88;3.28;;;9.60;99.90;;;;;;5073459;28;20040;-86
2023/05/24 04:58:42;;;;;;;24.25;4.78;;;9.70;99.90;;;;;;5057432;28;20705;-86
2023/05/24 05:01:09;;;;;;;16.02;3.25;;;9.80;99.90;;;;;;5056807;28;20223;-86
2023/05/24 05:03:36;;;;;;;13.48;3.03;;;9.90;99.90;;;;;;5072706;28;20057;-86
2023/05/24 05:06:02;;;;;;;24.00;3.70;;;10.00;99.90;;;;;;5072530;28;20120;-86
2023/05/24 05:08:29;;;;;;;17.33;3.20;;;10.10;99.90;;;;;;5073850;28;20543;-86
2023/05/24 05:10:56;;;;;;;18.65;3.50;;;10.10;99.90;;;;;;5056248;28;20108;-86
2023/05/24 05:13:23;;;;;;;17.90;4.18;;;10.20;99.90;;;;;;5073283;28;20048;-86
2023/05/24 05:15:50;;;;;;;21.65;4.38;;;10.20;99.90;;;;;;5075575;28;20119;-86
2023/05/24 05:18:17;;;;;;;14.57;3.50;;;10.20;99.90;;;;;;5076197;28;20047;-85
2023/05/24 05:20:43;;;;;;;21.25;3.33;;;10.20;99.90;;;;;;5076010;28;20485;-86
2023/05/24 05:23:10;;;;;;;22.33;3.80;;;10.20;99.90;;;;;;5059667;28;20436;-86
2023/05/24 05:25:37;;;;;;;16.90;3.97;;;10.20;99.90;;;;;;5076540;28;20133;-86
2023/05/24 05:28:03;;;;;;;18.42;3.55;;;10.20;99.90;;;;;;5058490;28;20084;-86
2023/05/24 05:30:30;;;;;;;15.60;3.10;;;10.20;99.90;;;;;;5040251;28;20045;-86
2023/05/24 05:32:57;;;;;;;13.32;2.88;;;10.20;99.90;;;;;;5055949;28;20124;-86
2023/05/24 05:35:23;;;;;;;25.02;3.75;;;10.20;99.90;;;;;;5055825;28;20045;-86
2023/05/24 05:37:50;;;;;;;20.95;3.50;;;10.20;99.90;;;;;;5039616;28;20041;-86
2023/05/24 05:40:17;;;;;;;17.23;3.50;;;10.20;99.90;;;;;;5056006;28;20714;-86
2023/05/24 05:42:45;;;;;;;14.90;3.33;;;10.20;99.90;;;;;;5055694;28;20037;-84
2023/05/24 05:45:12;;;;;;;17.45;3.72;;;10.30;99.90;;;;;;5040030;28;20071;-85
2023/05/24 05:47:39;;;;;;;19.85;3.28;;;10.30;99.90;;;;;;5063803;28;20045;-86
2023/05/24 05:50:06;;;;;;;15.95;2.92;;;10.40;99.90;;;;;;5059407;28;20421;-86
2023/05/24 05:52:33;;;;;;;16.55;3.47;;;10.50;99.90;;;;;;5091559;28;20040;-85
2023/05/24 05:55:00;;;;;;;16.95;3.25;;;10.60;99.90;;;;;;5060548;28;20052;-85
2023/05/24 05:57:27;;;;;;;11.85;2.85;;;10.70;99.90;;;;;;5045246;28;20064;-85
2023/05/24 05:59:53;;;;;;;20.73;3.50;;;10.70;99.90;;;;;;5056623;28;20047;-85
2023/05/24 06:02:23;;;;;;;17.23;3.53;;;10.80;99.90;;;;;;5039129;28;20560;-86
2023/05/24 06:04:50;;;;;;;15.93;3.75;;;10.90;99.90;;;;;;5054821;28;20063;-85
2023/05/24 06:07:16;;;;;;;17.52;3.55;;;10.90;99.90;;;;;;5055245;28;20048;-86
2023/05/24 06:09:43;;;;;;;12.82;3.30;;;10.90;99.90;;;;;;5055384;28;20049;-86
2023/05/24 06:12:10;;;;;;;15.48;3.20;;;11.00;99.90;;;;;;5038731;28;20409;-86
2023/05/24 06:14:39;;;;;;;12.38;2.88;;;11.00;99.90;;;;;;5055149;28;20048;-86
2023/05/24 06:17:06;;;;;;;18.25;3.95;;;11.10;99.90;;;;;;5055024;28;20512;-86
2023/05/24 06:19:32;;;;;;;18.52;3.22;;;11.10;99.90;;;;;;5053037;28;20075;-85
2023/05/24 06:22:00;;;;;;;17.13;3.40;;;11.20;99.90;;;;;;5074903;28;20066;-88
2023/05/24 06:24:27;;;;;;;11.90;2.83;;;11.20;99.90;;;;;;5075886;28;20048;-87
2023/05/24 06:26:54;;;;;;;13.98;3.08;;;11.20;99.90;;;;;;5074998;28;20029;-87
2023/05/24 06:29:21;;;;;;;15.63;3.20;;;11.30;99.90;;;;;;5077663;28;20049;-88
2023/05/24 06:31:48;;;;;;;19.33;3.08;;;11.30;99.90;;;;;;5039588;28;20051;-87
2023/05/24 06:34:20;;;;;;;19.08;3.20;;;11.30;99.90;;;;;;5089408;28;20043;-88
2023/05/24 06:36:47;;;;;;;13.68;3.28;;;11.40;99.90;;;;;;5064436;28;20037;-88
2023/05/24 06:39:15;;;;;;;13.88;3.20;;;11.30;99.90;;;;;;5084415;28;20075;-88
2023/05/24 06:41:43;;;;;;;15.88;2.97;;;11.40;99.90;;;;;;5079323;28;20032;-87
2023/05/24 06:44:10;;;;;;;12.45;3.42;;;11.40;99.90;;;;;;5077415;28;20044;-87
2023/05/24 06:46:36;;;;;;;13.00;3.17;;;11.50;99.90;;;;;;5049741;28;20036;-87
2023/05/24 06:49:03;;;;;;;16.02;3.20;;;11.50;99.90;;;;;;5065657;28;20127;-87
2023/05/24 06:51:32;;;;;;;11.38;3.05;;;11.60;99.90;;;;;;5038517;28;20497;-87
2023/05/24 06:53:59;;;;;;;11.48;2.67;;;11.70;99.90;;;;;;5056474;28;20050;-88
2023/05/24 06:56:25;;;;;;;12.00;2.47;;;11.70;99.90;;;;;;5058411;28;20123;-88
2023/05/24 06:58:52;;;;;;;9.38;2.60;;;11.80;99.90;;;;;;5075011;28;20044;-87
2023/05/24 07:01:19;;;;;;;18.83;3.53;;;11.90;99.90;;;;;;5052963;28;20045;-87
2023/05/24 07:03:45;;;;;;;17.40;2.97;;;12.00;99.90;;;;;;5054311;28;20064;-87
2023/05/24 07:06:13;;;;;;;14.40;2.83;;;12.10;99.90;;;;;;5070677;28;20091;-88
2023/05/24 07:08:40;;;;;;;16.27;3.05;;;12.20;99.90;;;;;;5077078;28;20193;-87
2023/05/24 07:11:08;;;;;;;12.73;2.92;;;12.30;99.90;;;;;;5057428;28;20131;-87
2023/05/24 07:13:35;;;;;;;15.25;3.05;;;12.30;99.90;;;;;;5074128;28;20044;-87
2023/05/24 07:16:02;;;;;;;12.45;2.85;;;12.40;99.90;;;;;;5073729;28;20048;-87
2023/05/24 07:18:29;;;;;;;12.88;3.10;;;12.40;99.90;;;;;;5074056;28;20037;-88
2023/05/24 07:20:56;;;;;;;11.70;2.85;;;12.30;99.90;;;;;;5072608;28;20094;-84
2023/05/24 07:23:22;;;;;;;15.70;2.58;;;12.20;99.90;;;;;;5074270;28;20044;-87
2023/05/24 07:25:49;;;;;;;19.75;3.33;;;12.20;99.90;;;;;;5063255;28;20990;-87
2023/05/24 07:28:18;;;;;;;12.98;3.78;;;12.10;99.90;;;;;;5070300;28;20044;-87
2023/05/24 07:30:45;;;;;;;16.13;3.28;;;12.10;99.90;;;;;;5050155;28;20028;-88
2023/05/24 07:33:12;;;;;;;12.15;2.90;;;12.10;99.90;;;;;;5073300;28;20880;-87
2023/05/24 07:35:39;;;;;;;9.98;2.60;;;12.20;99.90;;;;;;5106817;28;20032;-88
2023/05/24 07:38:06;;;;;;;10.60;2.60;;;12.20;99.90;;;;;;5090214;28;20043;-87
2023/05/24 07:40:33;;;;;;;16.38;3.22;;;12.30;99.90;;;;;;5057236;28;20123;-87
2023/05/24 07:43:00;;;;;;;10.45;2.80;;;12.30;99.90;;;;;;5038137;28;20063;-88
2023/05/24 07:45:27;;;;;;;10.63;2.38;;;12.30;99.90;;;;;;5037306;28;20041;-87
2023/05/24 07:47:53;;;;;;;8.95;2.72;;;12.40;99.90;;;;;;5045698;28;20409;-87
2023/05/24 07:50:20;;;;;;;10.95;2.45;;;12.50;99.90;;;;;;5073540;28;20055;-88
2023/05/24 07:52:47;;;;;;;12.35;2.92;;;12.50;99.90;;;;;;5087309;28;20128;-87
2023/05/24 07:55:14;;;;;;;8.25;2.55;;;12.50;99.90;;;;;;5036486;28;20383;-87
2023/05/24 07:57:41;;;;;;;11.90;2.78;;;12.50;99.90;;;;;;5037939;28;20036;-88
2023/05/24 08:00:13;;;;;;;9.32;2.60;;;12.70;99.90;;;;;;5036355;28;20037;-87
2023/05/24 08:02:42;;;;;;;15.05;3.00;;;12.70;99.90;;;;;;5044688;28;20036;-87
2023/05/24 08:05:11;;;;;;;16.95;3.08;;;12.80;99.90;;;;;;5089407;28;20145;-88
2023/05/24 08:07:39;;;;;;;11.77;2.55;;;12.90;99.90;;;;;;5090148;28;20044;-87
2023/05/24 08:10:08;;;;;;;14.38;2.70;;;13.10;99.90;;;;;;5073012;28;20059;-87
2023/05/24 08:12:34;;;;;;;8.30;2.30;;;13.30;99.90;;;;;;5085795;28;20382;-86
2023/05/24 08:15:01;;;;;;;14.35;3.00;;;13.30;99.90;;;;;;5053045;28;20037;-85
2023/05/24 08:17:29;;;;;;;11.50;2.42;;;13.30;99.90;;;;;;5037184;28;20045;-87
2023/05/24 08:19:56;;;;;;;8.77;2.70;;;13.50;99.90;;;;;;5086362;28;20045;-87
2023/05/24 08:22:22;;;;;;;11.52;2.72;;;13.80;99.90;;;;;;5053126;28;20048;-86
2023/05/24 08:24:50;;;;;;;7.22;2.38;;;14.00;99.90;;;;;;5051554;28;20715;-87
2023/05/24 08:27:17;;;;;;;11.05;2.63;;;14.20;99.90;;;;;;5037191;28;20041;-87
2023/05/24 08:29:44;;;;;;;13.00;2.90;;;14.10;99.90;;;;;;5053222;28;20497;-87
2023/05/24 08:32:10;;;;;;;12.07;2.45;;;14.10;99.90;;;;;;5036336;28;20040;-87
2023/05/24 08:34:37;;;;;;;9.52;2.90;;;14.00;99.90;;;;;;5036769;28;20041;-86
2023/05/24 08:37:04;;;;;;;13.40;2.58;;;14.00;99.90;;;;;;5069753;28;20033;-87
2023/05/24 08:39:31;;;;;;;10.00;2.63;;;14.10;99.90;;;;;;5053101;28;20079;-87
2023/05/24 08:42:01;;;;;;;11.60;2.33;;;14.20;99.90;;;;;;5037236;28;20076;-87
2023/05/24 08:44:28;;;;;;;9.95;2.63;;;14.20;99.90;;;;;;5040409;28;20415;-86
2023/05/24 08:46:57;;;;;;;14.38;2.45;;;14.30;99.90;;;;;;5069620;28;20546;-86
2023/05/24 08:49:23;;;;;;;10.73;2.30;;;14.40;99.90;;;;;;5075859;28;20048;-87
2023/05/24 08:51:51;;;;;;;10.68;2.58;;;14.40;99.90;;;;;;5092704;28;20539;-86
2023/05/24 08:54:19;;;;;;;10.40;2.63;;;14.30;99.90;;;;;;5055973;28;20052;-87
2023/05/24 08:56:46;;;;;;;11.77;2.40;;;14.40;99.90;;;;;;5056741;28;20044;-88
2023/05/24 08:59:13;;;;;;;9.52;2.50;;;14.40;99.90;;;;;;5056279;28;20086;-86
2023/05/24 09:01:40;;;;;;;8.88;2.50;;;14.50;99.90;;;;;;5081488;28;20040;-87
2023/05/24 09:04:08;;;;;;;13.20;2.58;;;14.70;99.90;;;;;;5073023;28;20560;-88
2023/05/24 09:06:35;;;;;;;11.50;2.53;;;14.70;99.90;;;;;;5073583;28;20084;-87
2023/05/24 09:09:03;;;;;;;9.02;1.90;;;14.80;99.90;;;;;;5058699;28;20041;-88
2023/05/24 09:11:31;;;;;;;10.43;2.67;;;14.90;99.90;;;;;;5092876;28;20052;-90
2023/05/24 09:13:59;;;;;;;10.20;2.53;;;15.30;99.90;;;;;;5075938;28;20051;-84
2023/05/24 09:16:26;;;;;;;10.07;2.50;;;15.40;99.90;;;;;;5091996;28;20041;-85
2023/05/24 09:18:53;;;;;;;9.60;2.67;;;15.40;99.90;;;;;;5091848;28;20037;-85
2023/05/24 09:21:21;;;;;;;12.98;2.58;;;15.30;99.90;;;;;;5074857;28;20558;-86
2023/05/24 09:23:48;;;;;;;15.07;2.80;;;15.20;99.90;;;;;;5059522;28;20040;-87
2023/05/24 09:26:16;;;;;;;12.95;2.42;;;15.20;99.90;;;;;;5075005;28;20831;-86
2023/05/24 09:28:43;;;;;;;9.70;3.17;;;15.20;99.90;;;;;;5075336;28;20048;-84
2023/05/24 09:31:11;;;;;;;11.10;2.90;;;15.20;99.90;;;;;;5065271;28;20170;-84
2023/05/24 09:33:38;;;;;;;6.47;2.45;;;15.10;99.90;;;;;;5074318;28;20047;-86
2023/05/24 09:36:05;;;;;;;11.23;2.85;;;14.90;99.90;;;;;;5072188;28;20106;-87
2023/05/24 09:38:34;;;;;;;10.27;2.55;;;14.70;99.90;;;;;;5088222;28;20048;-86
2023/05/24 09:41:03;;;;;;;11.05;2.90;;;14.50;99.90;;;;;;5097475;28;20044;-86
2023/05/24 09:43:33;;;;;;;12.38;2.60;;;14.40;99.90;;;;;;5108083;28;20410;-84
2023/05/24 09:46:03;;;;;;;12.60;2.80;;;14.30;99.90;;;;;;5072385;28;20041;-90
2023/05/24 09:48:30;;;;;;;9.40;2.20;;;14.10;99.90;;;;;;5070965;28;20036;-85
2023/05/24 09:51:08;;;;;;;7.78;2.10;;;14.10;99.90;;;;;;5069908;28;20098;-85
2023/05/24 09:53:35;;;;;;;12.77;2.70;;;14.00;99.90;;;;;;5087172;28;20036;-86
2023/05/24 09:56:04;;;;;;;9.07;2.33;;;14.10;99.90;;;;;;5075217;28;20040;-85
2023/05/24 09:58:34;;;;;;;11.73;2.90;;;14.20;99.90;;;;;;5070361;28;20041;-85
2023/05/24 10:01:12;;;;;;;12.23;3.05;;;14.40;99.90;;;;;;5073249;28;20036;-85
2023/05/24 10:03:55;;;;;;;13.57;2.53;;;14.40;99.90;;;;;;5055798;28;20037;-86
2023/05/24 10:06:23;;;;;;;11.40;2.95;;;14.50;99.90;;;;;;5087425;28;20048;-85
2023/05/24 10:08:53;;;;;;;10.30;2.72;;;14.70;99.90;;;;;;5054467;28;20724;-85
2023/05/24 10:11:20;;;;;;;11.90;2.75;;;15.00;99.90;;;;;;5073559;28;20043;-85
2023/05/24 10:13:50;;;;;;;11.82;2.83;;;15.00;99.90;;;;;;5070198;28;20036;-85
2023/05/24 10:16:16;;;;;;;13.07;2.33;;;15.00;99.90;;;;;;5061651;28;20165;-85
2023/05/24 10:18:43;;;;;;;10.65;2.53;;;15.00;99.90;;;;;;5037477;28;20045;-85
2023/05/24 10:21:10;;;;;;;15.90;2.53;;;15.20;99.90;;;;;;5054427;28;20041;-85
2023/05/24 10:23:38;;;;;;;7.90;2.42;;;15.30;99.90;;;;;;5044118;28;20037;-85
2023/05/24 10:26:05;;;;;;;15.38;2.80;;;15.20;99.90;;;;;;5070651;28;20120;-85
2023/05/24 10:28:35;;;;;;;12.48;2.80;;;15.00;99.90;;;;;;5080939;28;20115;-85
2023/05/24 10:31:17;;;;;;;13.27;3.40;;;14.90;99.90;;;;;;5075491;28;20098;-85
2023/05/24 10:33:47;;;;;;;12.55;3.08;;;14.80;99.90;;;;;;5089675;28;20041;-85
2023/05/24 10:36:14;;;;;;;12.95;3.70;;;14.70;99.90;;;;;;5090673;28;20050;-85
2023/05/24 10:38:42;;;;;;;11.68;2.72;;;14.60;99.90;;;;;;5073149;28;20038;-85
2023/05/24 10:41:11;;;;;;;12.25;2.60;;;14.50;99.90;;;;;;5073877;28;20075;-85
2023/05/24 10:43:38;;;;;;;14.88;2.30;;;14.40;99.90;;;;;;5063975;28;20041;-85
2023/05/24 10:46:09;;;;;;;11.38;2.78;;;14.40;99.90;;;;;;5071584;28;20397;-85
2023/05/24 10:48:39;;;;;;;9.00;2.75;;;14.30;99.90;;;;;;5069051;28;20440;-83
2023/05/24 10:51:37;;;;;;;12.23;2.78;;;14.30;99.90;;;;;;5064001;28;20048;-85
2023/05/24 10:54:18;;;;;;;13.27;3.00;;;14.30;99.90;;;;;;5086433;28;20032;-85
2023/05/24 10:56:49;;;;;;;14.23;2.92;;;14.30;99.90;;;;;;5086660;28;20040;-86
2023/05/24 10:59:23;;;;;;;12.15;2.53;;;14.30;99.90;;;;;;5070037;28;20032;-85
2023/05/24 11:02:12;;;;;;;8.85;2.53;;;14.40;99.90;;;;;;5069572;28;20489;-83
2023/05/24 11:04:44;;;;;;;13.68;2.53;;;14.40;99.90;;;;;;5069816;28;20084;-85
2023/05/24 11:07:14;;;;;;;10.48;2.55;;;14.50;99.90;;;;;;5086919;28;20040;-85
2023/05/24 11:10:05;;;;;;;8.93;2.90;;;14.70;99.90;;;;;;5096411;28;20394;-85
2023/05/24 11:12:33;;;;;;;12.80;2.65;;;14.90;99.90;;;;;;5088824;28;20052;-85
2023/05/24 11:15:01;;;;;;;10.27;2.67;;;15.10;99.90;;;;;;5068721;28;20083;-85
2023/05/24 11:17:28;;;;;;;7.68;2.50;;;15.10;99.90;;;;;;5069304;28;20611;-84
2023/05/24 11:19:55;;;;;;;7.68;2.72;;;15.20;99.90;;;;;;5053161;28;20123;-85
2023/05/24 11:22:24;;;;;;;9.70;2.55;;;15.30;99.90;;;;;;5052703;28;20037;-83
2023/05/24 11:24:51;;;;;;;11.07;2.55;;;15.20;99.90;;;;;;5102910;28;20470;-85
2023/05/24 11:27:18;;;;;;;6.80;2.13;;;15.20;99.90;;;;;;5106330;28;20409;-85
2023/05/24 11:29:46;;;;;;;8.55;2.45;;;15.20;99.90;;;;;;5040320;28;20036;-85
2023/05/24 11:32:19;;;;;;;8.20;2.17;;;15.20;99.90;;;;;;5052922;28;20043;-85
2023/05/24 11:34:46;;;;;;;10.60;2.17;;;15.20;99.90;;;;;;5069751;28;20072;-85
2023/05/24 11:37:14;;;;;;;10.30;2.20;;;15.20;99.90;;;;;;5053270;28;20045;-85
2023/05/24 11:39:41;;;;;;;6.18;2.13;;;15.30;99.90;;;;;;5037259;28;20124;-85
2023/05/24 11:42:08;;;;;;;8.98;2.38;;;15.30;99.90;;;;;;5086349;28;20128;-85
2023/05/24 11:44:38;;;;;;;9.30;2.53;;;15.30;99.90;;;;;;5055743;28;20122;-85
2023/05/24 11:47:07;;;;;;;7.03;2.08;;;15.40;99.90;;;;;;5106198;28;20071;-85
2023/05/24 11:49:34;;;;;;;12.70;2.38;;;15.40;99.90;;;;;;5071215;28;20086;-84
2023/05/24 11:52:01;;;;;;;7.10;2.50;;;15.40;99.90;;;;;;5069977;28;20118;-85
2023/05/24 11:54:31;;;;;;;7.82;2.72;;;15.40;99.90;;;;;;5076658;28;20040;-84
2023/05/24 11:56:58;;;;;;;10.90;2.38;;;15.40;99.90;;;;;;5076105;28;20048;-85
2023/05/24 11:59:26;;;;;;;8.88;2.35;;;15.40;99.90;;;;;;5072621;28;20032;-85
2023/05/24 12:02:01;;;;;;;8.95;2.35;;;15.20;99.90;;;;;;5070048;28;20075;-85
2023/05/24 12:04:29;;;;;;;8.43;2.38;;;15.20;99.90;;;;;;5103089;28;20092;-84
2023/05/24 12:06:56;;;;;;;9.38;2.15;;;15.10;99.90;;;;;;5085450;28;20049;-85
2023/05/24 12:09:24;;;;;;;11.68;2.50;;;15.00;99.90;;;;;;5069220;28;20033;-85
2023/05/24 12:11:52;;;;;;;7.28;2.20;;;15.00;99.90;;;;;;5105823;28;20044;-85
2023/05/24 12:14:25;;;;;;;9.70;2.47;;;15.10;99.90;;;;;;5062301;28;20045;-85
2023/05/24 12:16:55;;;;;;;9.55;2.33;;;15.20;99.90;;;;;;5085783;28;20048;-86
2023/05/24 12:19:29;;;;;;;9.82;2.05;;;15.30;99.90;;;;;;5083904;28;20036;-85
2023/05/24 12:21:56;;;;;;;9.80;2.33;;;15.30;99.90;;;;;;5103097;28;20068;-84
2023/05/24 12:24:24;;;;;;;8.98;2.33;;;15.20;99.90;;;;;;5067239;28;20044;-85
2023/05/24 12:26:56;;;;;;;5.85;1.63;;;15.10;99.90;;;;;;5076162;28;20036;-85
2023/05/24 12:29:23;;;;;;;8.65;2.40;;;15.40;99.90;;;;;;5071594;28;20037;-85
2023/05/24 12:31:51;;;;;;;11.10;2.55;;;15.60;99.90;;;;;;5042520;28;20492;-85
2023/05/24 12:34:18;;;;;;;9.55;3.03;;;15.70;99.90;;;;;;5064572;28;20052;-85
2023/05/24 12:36:46;;;;;;;13.43;3.15;;;15.80;99.90;;;;;;5087239;28;20036;-85
2023/05/24 12:39:29;;;;;;;11.07;2.80;;;15.70;99.90;;;;;;5072910;28;20404;-85
2023/05/24 12:41:57;;;;;;;10.23;3.00;;;15.70;99.90;;;;;;5105880;28;20045;-85
2023/05/24 12:44:26;;;;;;;8.20;2.60;;;15.50;99.90;;;;;;5077448;28;20116;-85
2023/05/24 12:46:54;;;;;;;11.75;2.63;;;15.60;99.90;;;;;;5072462;28;20045;-85
2023/05/24 12:49:22;;;;;;;8.75;2.55;;;15.60;99.90;;;;;;5074891;28;20516;-85
2023/05/24 12:51:50;;;;;;;10.05;2.67;;;15.50;99.90;;;;;;5055198;28;20041;-85